sensor_id;sensor_type;location;lat;lon;timestamp;P1;durP1;ratioP1;P2;durP2;ratioP2
24206;SDS011;12351;52.284;9.160;2023-03-29T00:02:28;4.42;;;1.72;;
24206;SDS011;12351;52.284;9.160;2023-03-29T00:05:19;2.95;;;1.67;;
24206;SDS011;12351;52.284;9.160;2023-03-29T00:08:12;6.83;;;2.17;;
24206;SDS011;12351;52.284;9.160;2023-03-29T00:11:02;5.05;;;2.10;;
24206;SDS011;12351;52.284;9.160;2023-03-29T00:13:53;3.65;;;2.02;;
24206;SDS011;12351;52.284;9.160;2023-03-29T00:16:45;5.55;;;2.00;;
24206;SDS011;12351;52.284;9.160;2023-03-29T00:19:35;7.92;;;2.60;;
24206;SDS011;12351;52.284;9.160;2023-03-29T00:22:25;4.85;;;2.30;;
24206;SDS011;12351;52.284;9.160;2023-03-29T00:25:18;5.12;;;1.90;;
24206;SDS011;12351;52.284;9.160;2023-03-29T00:28:10;6.50;;;2.58;;
24206;SDS011;12351;52.284;9.160;2023-03-29T00:33:54;5.12;;;2.20;;
24206;SDS011;12351;52.284;9.160;2023-03-29T00:36:43;5.55;;;2.15;;
24206;SDS011;12351;52.284;9.160;2023-03-29T00:39:37;3.52;;;2.12;;
24206;SDS011;12351;52.284;9.160;2023-03-29T00:42:26;4.65;;;2.45;;
24206;SDS011;12351;52.284;9.160;2023-03-29T00:51:00;5.15;;;2.42;;
24206;SDS011;12351;52.284;9.160;2023-03-29T00:53:49;7.30;;;2.95;;
24206;SDS011;12351;52.284;9.160;2023-03-29T00:56:42;6.60;;;2.75;;
24206;SDS011;12351;52.284;9.160;2023-03-29T00:59:33;3.42;;;2.35;;
24206;SDS011;12351;52.284;9.160;2023-03-29T01:02:25;4.33;;;3.00;;
24206;SDS011;12351;52.284;9.160;2023-03-29T01:05:20;4.70;;;2.77;;
24206;SDS011;12351;52.284;9.160;2023-03-29T01:08:16;6.55;;;2.70;;
24206;SDS011;12351;52.284;9.160;2023-03-29T01:16:50;6.78;;;2.72;;
24206;SDS011;12351;52.284;9.160;2023-03-29T01:19:44;5.50;;;2.75;;
24206;SDS011;12351;52.284;9.160;2023-03-29T01:28:20;5.83;;;3.02;;
24206;SDS011;12351;52.284;9.160;2023-03-29T01:31:12;5.55;;;3.02;;
24206;SDS011;12351;52.284;9.160;2023-03-29T01:34:04;4.85;;;3.10;;
24206;SDS011;12351;52.284;9.160;2023-03-29T01:36:53;4.08;;;2.60;;
24206;SDS011;12351;52.284;9.160;2023-03-29T01:39:45;4.87;;;2.50;;
24206;SDS011;12351;52.284;9.160;2023-03-29T01:45:29;3.08;;;2.58;;
24206;SDS011;12351;52.284;9.160;2023-03-29T01:48:22;4.10;;;2.80;;
24206;SDS011;12351;52.284;9.160;2023-03-29T01:51:13;4.55;;;2.62;;
24206;SDS011;12351;52.284;9.160;2023-03-29T01:54:03;3.95;;;2.47;;
24206;SDS011;12351;52.284;9.160;2023-03-29T01:56:53;4.72;;;2.83;;
24206;SDS011;12351;52.284;9.160;2023-03-29T01:59:47;5.03;;;2.70;;
24206;SDS011;12351;52.284;9.160;2023-03-29T02:02:38;4.65;;;2.42;;
24206;SDS011;12351;52.284;9.160;2023-03-29T02:05:29;4.85;;;2.70;;
24206;SDS011;12351;52.284;9.160;2023-03-29T02:08:20;3.12;;;2.42;;
24206;SDS011;12351;52.284;9.160;2023-03-29T02:11:12;3.60;;;2.50;;
24206;SDS011;12351;52.284;9.160;2023-03-29T02:14:08;4.17;;;2.58;;
24206;SDS011;12351;52.284;9.160;2023-03-29T02:19:51;3.55;;;2.55;;
24206;SDS011;12351;52.284;9.160;2023-03-29T02:22:42;6.00;;;2.67;;
24206;SDS011;12351;52.284;9.160;2023-03-29T02:25:34;3.62;;;2.90;;
24206;SDS011;12351;52.284;9.160;2023-03-29T02:28:26;3.75;;;2.67;;
24206;SDS011;12351;52.284;9.160;2023-03-29T02:31:19;5.90;;;2.80;;
24206;SDS011;12351;52.284;9.160;2023-03-29T02:37:03;3.75;;;2.65;;
24206;SDS011;12351;52.284;9.160;2023-03-29T02:39:52;5.97;;;3.02;;
24206;SDS011;12351;52.284;9.160;2023-03-29T02:42:43;6.42;;;2.72;;
24206;SDS011;12351;52.284;9.160;2023-03-29T02:45:32;4.03;;;2.70;;
24206;SDS011;12351;52.284;9.160;2023-03-29T02:48:23;5.15;;;2.92;;
24206;SDS011;12351;52.284;9.160;2023-03-29T02:54:05;3.50;;;2.47;;
24206;SDS011;12351;52.284;9.160;2023-03-29T02:56:59;6.10;;;3.10;;
24206;SDS011;12351;52.284;9.160;2023-03-29T02:59:48;4.58;;;2.72;;
24206;SDS011;12351;52.284;9.160;2023-03-29T03:02:40;3.87;;;2.98;;
24206;SDS011;12351;52.284;9.160;2023-03-29T03:05:29;3.95;;;2.70;;
24206;SDS011;12351;52.284;9.160;2023-03-29T03:08:19;4.22;;;2.77;;
24206;SDS011;12351;52.284;9.160;2023-03-29T03:11:10;3.72;;;2.47;;
24206;SDS011;12351;52.284;9.160;2023-03-29T03:14:00;3.52;;;2.40;;
24206;SDS011;12351;52.284;9.160;2023-03-29T03:16:51;4.27;;;2.50;;
24206;SDS011;12351;52.284;9.160;2023-03-29T03:19:43;6.47;;;2.75;;
24206;SDS011;12351;52.284;9.160;2023-03-29T03:22:37;3.12;;;2.58;;
24206;SDS011;12351;52.284;9.160;2023-03-29T03:25:26;5.37;;;2.92;;
24206;SDS011;12351;52.284;9.160;2023-03-29T03:28:17;4.28;;;3.00;;
24206;SDS011;12351;52.284;9.160;2023-03-29T03:31:08;4.25;;;2.90;;
24206;SDS011;12351;52.284;9.160;2023-03-29T03:33:59;6.75;;;3.20;;
24206;SDS011;12351;52.284;9.160;2023-03-29T03:36:50;4.97;;;2.98;;
24206;SDS011;12351;52.284;9.160;2023-03-29T03:39:40;3.50;;;2.72;;
24206;SDS011;12351;52.284;9.160;2023-03-29T03:42:31;4.53;;;3.00;;
24206;SDS011;12351;52.284;9.160;2023-03-29T03:45:19;5.55;;;2.83;;
24206;SDS011;12351;52.284;9.160;2023-03-29T03:48:08;4.12;;;3.00;;
24206;SDS011;12351;52.284;9.160;2023-03-29T03:50:58;6.10;;;3.10;;
24206;SDS011;12351;52.284;9.160;2023-03-29T03:53:52;3.95;;;2.87;;
24206;SDS011;12351;52.284;9.160;2023-03-29T03:56:43;5.87;;;3.27;;
24206;SDS011;12351;52.284;9.160;2023-03-29T03:59:35;5.60;;;2.70;;
24206;SDS011;12351;52.284;9.160;2023-03-29T04:02:24;5.17;;;2.80;;
24206;SDS011;12351;52.284;9.160;2023-03-29T04:05:18;4.92;;;2.72;;
24206;SDS011;12351;52.284;9.160;2023-03-29T04:08:11;5.87;;;2.52;;
24206;SDS011;12351;52.284;9.160;2023-03-29T04:11:00;4.40;;;2.98;;
24206;SDS011;12351;52.284;9.160;2023-03-29T04:13:54;5.80;;;2.90;;
24206;SDS011;12351;52.284;9.160;2023-03-29T04:16:43;5.75;;;2.98;;
24206;SDS011;12351;52.284;9.160;2023-03-29T04:19:36;3.90;;;2.72;;
24206;SDS011;12351;52.284;9.160;2023-03-29T04:22:26;4.58;;;2.87;;
24206;SDS011;12351;52.284;9.160;2023-03-29T04:25:18;4.75;;;2.80;;
24206;SDS011;12351;52.284;9.160;2023-03-29T04:28:10;4.45;;;2.83;;
24206;SDS011;12351;52.284;9.160;2023-03-29T04:31:00;4.87;;;3.00;;
24206;SDS011;12351;52.284;9.160;2023-03-29T04:33:52;4.08;;;3.10;;
24206;SDS011;12351;52.284;9.160;2023-03-29T04:36:42;4.97;;;3.20;;
24206;SDS011;12351;52.284;9.160;2023-03-29T04:39:35;4.35;;;2.85;;
24206;SDS011;12351;52.284;9.160;2023-03-29T04:42:26;4.75;;;2.83;;
24206;SDS011;12351;52.284;9.160;2023-03-29T04:45:19;6.72;;;3.00;;
24206;SDS011;12351;52.284;9.160;2023-03-29T04:48:12;6.78;;;2.98;;
24206;SDS011;12351;52.284;9.160;2023-03-29T04:51:01;5.47;;;2.80;;
24206;SDS011;12351;52.284;9.160;2023-03-29T04:53:53;6.20;;;3.37;;
24206;SDS011;12351;52.284;9.160;2023-03-29T04:56:45;5.87;;;3.10;;
24206;SDS011;12351;52.284;9.160;2023-03-29T04:59:35;3.25;;;2.60;;
24206;SDS011;12351;52.284;9.160;2023-03-29T05:02:25;5.12;;;3.00;;
24206;SDS011;12351;52.284;9.160;2023-03-29T05:05:17;4.87;;;2.98;;
24206;SDS011;12351;52.284;9.160;2023-03-29T05:08:07;6.25;;;3.25;;
24206;SDS011;12351;52.284;9.160;2023-03-29T05:10:59;6.37;;;3.10;;
24206;SDS011;12351;52.284;9.160;2023-03-29T05:13:47;9.40;;;3.20;;
24206;SDS011;12351;52.284;9.160;2023-03-29T05:16:39;5.20;;;3.58;;
24206;SDS011;12351;52.284;9.160;2023-03-29T05:19:29;4.42;;;3.20;;
24206;SDS011;12351;52.284;9.160;2023-03-29T05:22:21;4.80;;;3.33;;
24206;SDS011;12351;52.284;9.160;2023-03-29T05:25:10;7.95;;;3.30;;
24206;SDS011;12351;52.284;9.160;2023-03-29T05:28:02;4.58;;;3.10;;
24206;SDS011;12351;52.284;9.160;2023-03-29T05:33:46;7.47;;;3.15;;
24206;SDS011;12351;52.284;9.160;2023-03-29T05:36:36;6.15;;;3.40;;
24206;SDS011;12351;52.284;9.160;2023-03-29T05:39:28;6.20;;;3.25;;
24206;SDS011;12351;52.284;9.160;2023-03-29T05:42:21;4.60;;;2.70;;
24206;SDS011;12351;52.284;9.160;2023-03-29T05:45:11;7.03;;;3.25;;
24206;SDS011;12351;52.284;9.160;2023-03-29T05:48:02;5.45;;;3.30;;
24206;SDS011;12351;52.284;9.160;2023-03-29T05:50:52;6.83;;;3.50;;
24206;SDS011;12351;52.284;9.160;2023-03-29T05:53:46;4.60;;;3.27;;
24206;SDS011;12351;52.284;9.160;2023-03-29T05:56:34;4.90;;;3.05;;
24206;SDS011;12351;52.284;9.160;2023-03-29T05:59:24;5.95;;;3.17;;
24206;SDS011;12351;52.284;9.160;2023-03-29T06:02:14;7.08;;;3.27;;
24206;SDS011;12351;52.284;9.160;2023-03-29T06:05:05;4.75;;;3.00;;
24206;SDS011;12351;52.284;9.160;2023-03-29T06:07:56;4.33;;;3.30;;
24206;SDS011;12351;52.284;9.160;2023-03-29T06:10:45;5.33;;;3.37;;
24206;SDS011;12351;52.284;9.160;2023-03-29T06:13:36;9.33;;;3.58;;
24206;SDS011;12351;52.284;9.160;2023-03-29T06:16:26;7.25;;;3.50;;
24206;SDS011;12351;52.284;9.160;2023-03-29T06:19:15;6.12;;;3.50;;
24206;SDS011;12351;52.284;9.160;2023-03-29T06:22:07;5.03;;;3.30;;
24206;SDS011;12351;52.284;9.160;2023-03-29T06:24:55;5.35;;;3.35;;
24206;SDS011;12351;52.284;9.160;2023-03-29T06:27:50;6.40;;;3.30;;
24206;SDS011;12351;52.284;9.160;2023-03-29T06:30:40;5.47;;;3.30;;
24206;SDS011;12351;52.284;9.160;2023-03-29T06:33:30;7.35;;;3.02;;
24206;SDS011;12351;52.284;9.160;2023-03-29T06:36:23;4.72;;;3.25;;
24206;SDS011;12351;52.284;9.160;2023-03-29T06:39:12;5.97;;;3.22;;
24206;SDS011;12351;52.284;9.160;2023-03-29T06:42:03;5.75;;;3.62;;
24206;SDS011;12351;52.284;9.160;2023-03-29T06:44:54;6.10;;;3.70;;
24206;SDS011;12351;52.284;9.160;2023-03-29T06:47:46;5.35;;;3.40;;
24206;SDS011;12351;52.284;9.160;2023-03-29T06:50:37;6.45;;;3.15;;
24206;SDS011;12351;52.284;9.160;2023-03-29T06:53:25;6.33;;;3.50;;
24206;SDS011;12351;52.284;9.160;2023-03-29T06:56:17;5.75;;;3.40;;
24206;SDS011;12351;52.284;9.160;2023-03-29T06:59:08;4.72;;;2.92;;
24206;SDS011;12351;52.284;9.160;2023-03-29T07:01:57;5.42;;;3.30;;
24206;SDS011;12351;52.284;9.160;2023-03-29T07:04:49;5.80;;;3.27;;
24206;SDS011;12351;52.284;9.160;2023-03-29T07:07:41;5.08;;;3.15;;
24206;SDS011;12351;52.284;9.160;2023-03-29T07:10:34;5.87;;;3.47;;
24206;SDS011;12351;52.284;9.160;2023-03-29T07:13:23;5.72;;;3.30;;
24206;SDS011;12351;52.284;9.160;2023-03-29T07:16:12;4.78;;;3.17;;
24206;SDS011;12351;52.284;9.160;2023-03-29T07:19:06;6.03;;;3.47;;
24206;SDS011;12351;52.284;9.160;2023-03-29T07:21:55;4.97;;;3.20;;
24206;SDS011;12351;52.284;9.160;2023-03-29T07:24:45;7.78;;;3.17;;
24206;SDS011;12351;52.284;9.160;2023-03-29T07:27:36;7.05;;;3.22;;
24206;SDS011;12351;52.284;9.160;2023-03-29T07:30:28;7.25;;;3.55;;
24206;SDS011;12351;52.284;9.160;2023-03-29T07:33:19;4.55;;;3.17;;
24206;SDS011;12351;52.284;9.160;2023-03-29T07:36:10;4.95;;;3.22;;
24206;SDS011;12351;52.284;9.160;2023-03-29T07:39:03;6.20;;;3.27;;
24206;SDS011;12351;52.284;9.160;2023-03-29T07:41:55;6.05;;;3.12;;
24206;SDS011;12351;52.284;9.160;2023-03-29T07:44:44;5.17;;;3.47;;
24206;SDS011;12351;52.284;9.160;2023-03-29T07:47:33;7.53;;;3.30;;
24206;SDS011;12351;52.284;9.160;2023-03-29T07:50:25;4.78;;;3.00;;
24206;SDS011;12351;52.284;9.160;2023-03-29T07:53:17;5.75;;;3.08;;
24206;SDS011;12351;52.284;9.160;2023-03-29T07:56:07;4.92;;;3.05;;
24206;SDS011;12351;52.284;9.160;2023-03-29T07:58:58;5.87;;;3.30;;
24206;SDS011;12351;52.284;9.160;2023-03-29T08:01:48;6.22;;;3.27;;
24206;SDS011;12351;52.284;9.160;2023-03-29T08:04:40;5.10;;;3.52;;
24206;SDS011;12351;52.284;9.160;2023-03-29T08:07:31;5.50;;;3.37;;
24206;SDS011;12351;52.284;9.160;2023-03-29T08:10:19;8.18;;;4.22;;
24206;SDS011;12351;52.284;9.160;2023-03-29T08:13:11;8.05;;;3.42;;
24206;SDS011;12351;52.284;9.160;2023-03-29T08:16:00;8.53;;;4.17;;
24206;SDS011;12351;52.284;9.160;2023-03-29T08:18:52;6.87;;;3.87;;
24206;SDS011;12351;52.284;9.160;2023-03-29T08:21:41;8.65;;;4.12;;
24206;SDS011;12351;52.284;9.160;2023-03-29T08:24:32;6.65;;;4.72;;
24206;SDS011;12351;52.284;9.160;2023-03-29T08:27:23;5.90;;;3.83;;
24206;SDS011;12351;52.284;9.160;2023-03-29T08:30:14;7.20;;;3.75;;
24206;SDS011;12351;52.284;9.160;2023-03-29T08:33:04;6.90;;;3.92;;
24206;SDS011;12351;52.284;9.160;2023-03-29T08:35:56;7.08;;;4.80;;
24206;SDS011;12351;52.284;9.160;2023-03-29T08:38:46;11.35;;;5.05;;
24206;SDS011;12351;52.284;9.160;2023-03-29T08:41:38;6.12;;;4.53;;
24206;SDS011;12351;52.284;9.160;2023-03-29T08:47:19;6.57;;;4.57;;
24206;SDS011;12351;52.284;9.160;2023-03-29T08:50:10;8.05;;;4.53;;
24206;SDS011;12351;52.284;9.160;2023-03-29T08:53:00;7.08;;;4.70;;
24206;SDS011;12351;52.284;9.160;2023-03-29T08:55:54;7.37;;;4.37;;
24206;SDS011;12351;52.284;9.160;2023-03-29T08:58:46;10.15;;;4.78;;
24206;SDS011;12351;52.284;9.160;2023-03-29T09:01:35;6.95;;;4.62;;
24206;SDS011;12351;52.284;9.160;2023-03-29T09:04:28;7.72;;;4.83;;
24206;SDS011;12351;52.284;9.160;2023-03-29T09:07:17;6.70;;;4.75;;
24206;SDS011;12351;52.284;9.160;2023-03-29T09:10:08;8.05;;;4.28;;
24206;SDS011;12351;52.284;9.160;2023-03-29T09:13:06;7.78;;;5.12;;
24206;SDS011;12351;52.284;9.160;2023-03-29T09:15:55;9.73;;;5.30;;
24206;SDS011;12351;52.284;9.160;2023-03-29T09:21:38;9.48;;;5.03;;
24206;SDS011;12351;52.284;9.160;2023-03-29T09:35:52;7.72;;;4.53;;
24206;SDS011;12351;52.284;9.160;2023-03-29T09:38:43;8.10;;;4.28;;
24206;SDS011;12351;52.284;9.160;2023-03-29T09:41:36;9.10;;;4.30;;
24206;SDS011;12351;52.284;9.160;2023-03-29T09:44:26;8.13;;;4.35;;
24206;SDS011;12351;52.284;9.160;2023-03-29T09:47:18;6.75;;;4.10;;
24206;SDS011;12351;52.284;9.160;2023-03-29T09:50:09;7.37;;;4.25;;
24206;SDS011;12351;52.284;9.160;2023-03-29T09:52:57;8.05;;;4.80;;
24206;SDS011;12351;52.284;9.160;2023-03-29T09:55:49;5.72;;;4.55;;
24206;SDS011;12351;52.284;9.160;2023-03-29T09:58:36;6.25;;;4.33;;
24206;SDS011;12351;52.284;9.160;2023-03-29T10:01:34;8.58;;;4.40;;
24206;SDS011;12351;52.284;9.160;2023-03-29T10:04:19;10.35;;;4.50;;
24206;SDS011;12351;52.284;9.160;2023-03-29T10:07:11;8.43;;;4.53;;
24206;SDS011;12351;52.284;9.160;2023-03-29T10:09:58;7.80;;;4.35;;
24206;SDS011;12351;52.284;9.160;2023-03-29T10:12:49;9.70;;;4.58;;
24206;SDS011;12351;52.284;9.160;2023-03-29T10:18:30;4.87;;;3.95;;
24206;SDS011;12351;52.284;9.160;2023-03-29T10:21:20;8.93;;;4.20;;
24206;SDS011;12351;52.284;9.160;2023-03-29T10:24:10;8.38;;;4.47;;
24206;SDS011;12351;52.284;9.160;2023-03-29T10:27:03;7.67;;;4.12;;
24206;SDS011;12351;52.284;9.160;2023-03-29T10:29:55;7.95;;;4.65;;
24206;SDS011;12351;52.284;9.160;2023-03-29T10:32:43;9.58;;;5.10;;
24206;SDS011;12351;52.284;9.160;2023-03-29T10:38:27;6.22;;;4.28;;
24206;SDS011;12351;52.284;9.160;2023-03-29T10:41:20;7.30;;;4.25;;
24206;SDS011;12351;52.284;9.160;2023-03-29T10:49:52;9.60;;;4.33;;
24206;SDS011;12351;52.284;9.160;2023-03-29T10:52:44;6.78;;;4.05;;
24206;SDS011;12351;52.284;9.160;2023-03-29T10:55:36;6.72;;;4.30;;
24206;SDS011;12351;52.284;9.160;2023-03-29T11:01:20;7.12;;;4.40;;
24206;SDS011;12351;52.284;9.160;2023-03-29T11:07:08;9.50;;;4.28;;
24206;SDS011;12351;52.284;9.160;2023-03-29T11:12:46;8.28;;;4.15;;
24206;SDS011;12351;52.284;9.160;2023-03-29T11:21:22;8.23;;;4.12;;
24206;SDS011;12351;52.284;9.160;2023-03-29T11:32:47;11.70;;;4.60;;
24206;SDS011;12351;52.284;9.160;2023-03-29T11:41:18;8.78;;;4.78;;
24206;SDS011;12351;52.284;9.160;2023-03-29T11:52:43;8.05;;;5.17;;
24206;SDS011;12351;52.284;9.160;2023-03-29T11:55:38;8.20;;;5.42;;
24206;SDS011;12351;52.284;9.160;2023-03-29T11:58:29;10.43;;;5.40;;
24206;SDS011;12351;52.284;9.160;2023-03-29T12:01:23;7.92;;;5.45;;
24206;SDS011;12351;52.284;9.160;2023-03-29T12:04:11;6.65;;;5.75;;
24206;SDS011;12351;52.284;9.160;2023-03-29T12:09:55;6.55;;;5.28;;
24206;SDS011;12351;52.284;9.160;2023-03-29T12:15:40;8.38;;;6.25;;
24206;SDS011;12351;52.284;9.160;2023-03-29T12:18:34;8.30;;;6.25;;
24206;SDS011;12351;52.284;9.160;2023-03-29T12:21:23;7.75;;;6.12;;
24206;SDS011;12351;52.284;9.160;2023-03-29T12:24:17;9.25;;;6.30;;
24206;SDS011;12351;52.284;9.160;2023-03-29T12:35:45;12.00;;;6.53;;
24206;SDS011;12351;52.284;9.160;2023-03-29T12:38:32;7.35;;;6.12;;
24206;SDS011;12351;52.284;9.160;2023-03-29T12:44:13;7.47;;;5.65;;
24206;SDS011;12351;52.284;9.160;2023-03-29T12:47:02;8.08;;;6.05;;
24206;SDS011;12351;52.284;9.160;2023-03-29T12:49:53;10.75;;;6.00;;
24206;SDS011;12351;52.284;9.160;2023-03-29T12:52:42;7.67;;;6.15;;
24206;SDS011;12351;52.284;9.160;2023-03-29T12:55:38;8.43;;;5.70;;
24206;SDS011;12351;52.284;9.160;2023-03-29T13:07:10;10.05;;;6.35;;
24206;SDS011;12351;52.284;9.160;2023-03-29T13:10:00;7.90;;;6.00;;
24206;SDS011;12351;52.284;9.160;2023-03-29T13:12:50;10.05;;;5.90;;
24206;SDS011;12351;52.284;9.160;2023-03-29T13:15:39;8.20;;;6.17;;
24206;SDS011;12351;52.284;9.160;2023-03-29T13:18:33;8.63;;;6.65;;
24206;SDS011;12351;52.284;9.160;2023-03-29T13:21:25;8.25;;;5.95;;
24206;SDS011;12351;52.284;9.160;2023-03-29T13:24:17;7.05;;;5.95;;
24206;SDS011;12351;52.284;9.160;2023-03-29T13:27:05;7.12;;;5.40;;
24206;SDS011;12351;52.284;9.160;2023-03-29T13:38:30;5.62;;;4.53;;
24206;SDS011;12351;52.284;9.160;2023-03-29T13:47:11;7.22;;;5.55;;
24206;SDS011;12351;52.284;9.160;2023-03-29T13:49:56;6.30;;;4.70;;
24206;SDS011;12351;52.284;9.160;2023-03-29T13:55:37;4.90;;;4.40;;
24206;SDS011;12351;52.284;9.160;2023-03-29T14:01:20;7.08;;;4.40;;
24206;SDS011;12351;52.284;9.160;2023-03-29T14:04:10;4.75;;;3.95;;
24206;SDS011;12351;52.284;9.160;2023-03-29T14:07:02;4.65;;;4.05;;
24206;SDS011;12351;52.284;9.160;2023-03-29T14:09:56;4.12;;;3.72;;
24206;SDS011;12351;52.284;9.160;2023-03-29T14:12:45;6.35;;;4.80;;
24206;SDS011;12351;52.284;9.160;2023-03-29T14:18:31;7.50;;;4.90;;
24206;SDS011;12351;52.284;9.160;2023-03-29T14:21:21;6.40;;;4.87;;
24206;SDS011;12351;52.284;9.160;2023-03-29T14:24:11;7.30;;;5.10;;
24206;SDS011;12351;52.284;9.160;2023-03-29T14:27:01;9.13;;;5.72;;
24206;SDS011;12351;52.284;9.160;2023-03-29T14:29:55;7.15;;;5.67;;
24206;SDS011;12351;52.284;9.160;2023-03-29T14:32:44;6.60;;;5.30;;
24206;SDS011;12351;52.284;9.160;2023-03-29T14:35:36;9.43;;;5.60;;
24206;SDS011;12351;52.284;9.160;2023-03-29T14:38:24;6.40;;;5.25;;
24206;SDS011;12351;52.284;9.160;2023-03-29T14:41:14;8.70;;;5.78;;
24206;SDS011;12351;52.284;9.160;2023-03-29T14:44:06;10.20;;;5.97;;
24206;SDS011;12351;52.284;9.160;2023-03-29T14:46:58;7.70;;;5.45;;
24206;SDS011;12351;52.284;9.160;2023-03-29T14:49:51;7.42;;;5.55;;
24206;SDS011;12351;52.284;9.160;2023-03-29T14:52:40;8.93;;;6.10;;
24206;SDS011;12351;52.284;9.160;2023-03-29T14:55:31;7.95;;;5.90;;
24206;SDS011;12351;52.284;9.160;2023-03-29T14:58:22;9.78;;;6.28;;
24206;SDS011;12351;52.284;9.160;2023-03-29T15:01:17;8.35;;;5.47;;
24206;SDS011;12351;52.284;9.160;2023-03-29T15:04:08;10.82;;;6.20;;
24206;SDS011;12351;52.284;9.160;2023-03-29T15:06:58;8.05;;;5.90;;
24206;SDS011;12351;52.284;9.160;2023-03-29T15:09:51;10.88;;;6.62;;
24206;SDS011;12351;52.284;9.160;2023-03-29T15:12:41;8.35;;;6.30;;
24206;SDS011;12351;52.284;9.160;2023-03-29T15:15:34;7.62;;;6.37;;
24206;SDS011;12351;52.284;9.160;2023-03-29T15:18:30;10.40;;;6.10;;
24206;SDS011;12351;52.284;9.160;2023-03-29T15:21:21;13.60;;;6.30;;
24206;SDS011;12351;52.284;9.160;2023-03-29T15:32:48;11.85;;;6.85;;
24206;SDS011;12351;52.284;9.160;2023-03-29T15:35:39;10.18;;;6.87;;
24206;SDS011;12351;52.284;9.160;2023-03-29T15:38:28;8.80;;;6.90;;
24206;SDS011;12351;52.284;9.160;2023-03-29T15:41:19;12.25;;;7.37;;
24206;SDS011;12351;52.284;9.160;2023-03-29T15:44:12;11.38;;;7.65;;
24206;SDS011;12351;52.284;9.160;2023-03-29T15:47:04;11.93;;;7.37;;
24206;SDS011;12351;52.284;9.160;2023-03-29T15:49:57;12.28;;;7.78;;
24206;SDS011;12351;52.284;9.160;2023-03-29T15:52:47;10.50;;;7.50;;
24206;SDS011;12351;52.284;9.160;2023-03-29T15:55:39;9.85;;;7.12;;
24206;SDS011;12351;52.284;9.160;2023-03-29T15:58:30;10.75;;;7.60;;
24206;SDS011;12351;52.284;9.160;2023-03-29T16:01:22;8.88;;;7.10;;
24206;SDS011;12351;52.284;9.160;2023-03-29T16:04:14;10.90;;;6.97;;
24206;SDS011;12351;52.284;9.160;2023-03-29T16:07:05;11.30;;;7.35;;
24206;SDS011;12351;52.284;9.160;2023-03-29T16:09:55;8.75;;;7.30;;
24206;SDS011;12351;52.284;9.160;2023-03-29T16:12:46;11.30;;;7.72;;
24206;SDS011;12351;52.284;9.160;2023-03-29T16:15:37;9.23;;;7.05;;
24206;SDS011;12351;52.284;9.160;2023-03-29T16:18:27;9.35;;;7.20;;
24206;SDS011;12351;52.284;9.160;2023-03-29T16:21:19;11.55;;;7.00;;
24206;SDS011;12351;52.284;9.160;2023-03-29T16:24:15;11.40;;;7.33;;
24206;SDS011;12351;52.284;9.160;2023-03-29T16:27:03;9.90;;;7.62;;
24206;SDS011;12351;52.284;9.160;2023-03-29T16:29:53;12.85;;;7.90;;
24206;SDS011;12351;52.284;9.160;2023-03-29T16:32:44;12.28;;;7.75;;
24206;SDS011;12351;52.284;9.160;2023-03-29T16:35:37;10.50;;;7.67;;
24206;SDS011;12351;52.284;9.160;2023-03-29T16:38:25;11.75;;;7.80;;
24206;SDS011;12351;52.284;9.160;2023-03-29T16:41:16;12.40;;;7.80;;
24206;SDS011;12351;52.284;9.160;2023-03-29T16:44:07;11.65;;;7.83;;
24206;SDS011;12351;52.284;9.160;2023-03-29T16:49:47;11.43;;;8.05;;
24206;SDS011;12351;52.284;9.160;2023-03-29T16:52:36;16.62;;;10.38;;
24206;SDS011;12351;52.284;9.160;2023-03-29T16:55:27;14.40;;;9.55;;
24206;SDS011;12351;52.284;9.160;2023-03-29T16:58:17;13.28;;;9.00;;
24206;SDS011;12351;52.284;9.160;2023-03-29T17:01:08;12.20;;;8.73;;
24206;SDS011;12351;52.284;9.160;2023-03-29T17:04:00;16.50;;;8.18;;
24206;SDS011;12351;52.284;9.160;2023-03-29T17:06:54;10.45;;;7.92;;
24206;SDS011;12351;52.284;9.160;2023-03-29T17:09:44;10.50;;;7.37;;
24206;SDS011;12351;52.284;9.160;2023-03-29T17:12:35;11.40;;;7.30;;
24206;SDS011;12351;52.284;9.160;2023-03-29T17:15:28;10.60;;;7.45;;
24206;SDS011;12351;52.284;9.160;2023-03-29T17:18:18;11.48;;;7.30;;
24206;SDS011;12351;52.284;9.160;2023-03-29T17:21:10;10.88;;;7.62;;
24206;SDS011;12351;52.284;9.160;2023-03-29T17:24:01;10.98;;;7.58;;
24206;SDS011;12351;52.284;9.160;2023-03-29T17:26:51;11.35;;;8.10;;
24206;SDS011;12351;52.284;9.160;2023-03-29T17:29:41;11.93;;;7.75;;
24206;SDS011;12351;52.284;9.160;2023-03-29T17:32:30;13.88;;;7.80;;
24206;SDS011;12351;52.284;9.160;2023-03-29T17:35:22;12.35;;;9.80;;
24206;SDS011;12351;52.284;9.160;2023-03-29T17:38:11;10.85;;;8.35;;
24206;SDS011;12351;52.284;9.160;2023-03-29T17:41:05;11.15;;;7.45;;
24206;SDS011;12351;52.284;9.160;2023-03-29T17:43:52;9.63;;;7.72;;
24206;SDS011;12351;52.284;9.160;2023-03-29T17:46:42;12.00;;;7.75;;
24206;SDS011;12351;52.284;9.160;2023-03-29T17:49:30;13.35;;;8.20;;
24206;SDS011;12351;52.284;9.160;2023-03-29T17:52:20;9.98;;;7.42;;
24206;SDS011;12351;52.284;9.160;2023-03-29T17:55:12;8.73;;;6.93;;
24206;SDS011;12351;52.284;9.160;2023-03-29T17:58:04;12.43;;;7.70;;
24206;SDS011;12351;52.284;9.160;2023-03-29T18:00:54;11.60;;;7.12;;
24206;SDS011;12351;52.284;9.160;2023-03-29T18:03:45;10.28;;;7.12;;
24206;SDS011;12351;52.284;9.160;2023-03-29T18:06:34;9.33;;;7.15;;
24206;SDS011;12351;52.284;9.160;2023-03-29T18:09:25;12.55;;;7.35;;
24206;SDS011;12351;52.284;9.160;2023-03-29T18:12:16;10.70;;;7.08;;
24206;SDS011;12351;52.284;9.160;2023-03-29T18:15:05;12.20;;;6.97;;
24206;SDS011;12351;52.284;9.160;2023-03-29T18:17:53;9.98;;;7.28;;
24206;SDS011;12351;52.284;9.160;2023-03-29T18:20:43;9.45;;;7.00;;
24206;SDS011;12351;52.284;9.160;2023-03-29T18:23:36;13.35;;;7.28;;
24206;SDS011;12351;52.284;9.160;2023-03-29T18:26:28;9.05;;;6.90;;
24206;SDS011;12351;52.284;9.160;2023-03-29T18:29:19;12.03;;;7.40;;
24206;SDS011;12351;52.284;9.160;2023-03-29T18:32:10;9.08;;;6.55;;
24206;SDS011;12351;52.284;9.160;2023-03-29T18:35:03;12.00;;;6.83;;
24206;SDS011;12351;52.284;9.160;2023-03-29T18:37:52;10.55;;;6.12;;
24206;SDS011;12351;52.284;9.160;2023-03-29T18:40:42;8.93;;;6.35;;
24206;SDS011;12351;52.284;9.160;2023-03-29T18:43:36;8.03;;;6.10;;
24206;SDS011;12351;52.284;9.160;2023-03-29T18:46:24;11.20;;;6.50;;
24206;SDS011;12351;52.284;9.160;2023-03-29T18:49:16;9.18;;;5.90;;
24206;SDS011;12351;52.284;9.160;2023-03-29T18:52:05;9.95;;;6.20;;
24206;SDS011;12351;52.284;9.160;2023-03-29T18:54:54;9.25;;;5.80;;
24206;SDS011;12351;52.284;9.160;2023-03-29T18:57:46;8.50;;;5.28;;
24206;SDS011;12351;52.284;9.160;2023-03-29T19:00:36;7.72;;;5.15;;
24206;SDS011;12351;52.284;9.160;2023-03-29T19:03:25;8.15;;;5.20;;
24206;SDS011;12351;52.284;9.160;2023-03-29T19:06:17;9.58;;;5.33;;
24206;SDS011;12351;52.284;9.160;2023-03-29T19:09:08;7.37;;;5.08;;
24206;SDS011;12351;52.284;9.160;2023-03-29T19:11:55;6.92;;;5.10;;
24206;SDS011;12351;52.284;9.160;2023-03-29T19:14:46;10.82;;;5.78;;
24206;SDS011;12351;52.284;9.160;2023-03-29T19:17:35;6.33;;;4.85;;
24206;SDS011;12351;52.284;9.160;2023-03-29T19:20:25;5.58;;;4.53;;
24206;SDS011;12351;52.284;9.160;2023-03-29T19:23:16;6.97;;;4.35;;
24206;SDS011;12351;52.284;9.160;2023-03-29T19:26:09;7.10;;;4.57;;
24206;SDS011;12351;52.284;9.160;2023-03-29T19:28:59;7.55;;;4.47;;
24206;SDS011;12351;52.284;9.160;2023-03-29T19:31:52;8.73;;;5.50;;
24206;SDS011;12351;52.284;9.160;2023-03-29T19:34:42;6.75;;;5.17;;
24206;SDS011;12351;52.284;9.160;2023-03-29T19:37:33;9.60;;;5.90;;
24206;SDS011;12351;52.284;9.160;2023-03-29T19:40:26;9.48;;;6.25;;
24206;SDS011;12351;52.284;9.160;2023-03-29T19:43:16;7.62;;;6.15;;
24206;SDS011;12351;52.284;9.160;2023-03-29T19:46:07;8.28;;;6.00;;
24206;SDS011;12351;52.284;9.160;2023-03-29T19:48:57;10.88;;;6.17;;